createdAt,value
2018-08-30T00:00:02.924Z,17.70
2018-08-30T00:02:32.403Z,17.75
2018-08-30T00:05:00.760Z,17.74
2018-08-30T00:07:31.722Z,17.65
2018-08-30T00:10:00.072Z,17.67
2018-08-30T00:12:29.059Z,17.56
2018-08-30T00:14:59.548Z,17.56
2018-08-30T00:17:32.432Z,17.53
2018-08-30T00:20:01.640Z,17.49
2018-08-30T00:22:30.212Z,17.54
2018-08-30T00:24:59.481Z,17.46
2018-08-30T00:27:29.575Z,17.42
2018-08-30T00:29:58.469Z,17.44
2018-08-30T00:32:27.644Z,17.44
2018-08-30T00:34:57.304Z,17.59
2018-08-30T00:37:26.475Z,17.43
2018-08-30T00:39:55.966Z,17.46
2018-08-30T00:42:24.303Z,17.46
2018-08-30T00:44:52.680Z,17.41
2018-08-30T00:47:21.823Z,17.44
2018-08-30T00:49:52.020Z,17.54
2018-08-30T00:52:24.023Z,17.43
2018-08-30T00:54:52.416Z,17.49
2018-08-30T00:57:22.423Z,17.33
2018-08-30T00:59:51.499Z,17.40
2018-08-30T01:02:21.073Z,17.36
2018-08-30T01:04:51.098Z,17.27
2018-08-30T01:07:20.605Z,17.27
2018-08-30T01:09:48.953Z,17.27
2018-08-30T01:12:17.696Z,17.38
2018-08-30T01:14:46.437Z,17.24
2018-08-30T01:17:15.391Z,16.45
2018-08-30T01:19:44.379Z,17.11
2018-08-30T01:22:14.190Z,17.35
2018-08-30T01:24:42.554Z,17.11
2018-08-30T01:27:12.634Z,17.22
2018-08-30T01:29:41.504Z,17.23
2018-08-30T01:32:10.793Z,16.99
2018-08-30T01:34:39.774Z,17.03
2018-08-30T01:37:08.156Z,17.13
2018-08-30T01:39:37.452Z,16.93
2018-08-30T01:42:07.599Z,16.87
2018-08-30T01:44:36.495Z,17.07
2018-08-30T01:47:06.257Z,16.91
2018-08-30T01:49:35.682Z,17.01
2018-08-30T01:52:05.181Z,16.98
2018-08-30T01:54:34.535Z,16.93
2018-08-30T01:57:17.797Z,17.12
2018-08-30T01:59:46.833Z,16.89
2018-08-30T02:02:16.466Z,17.04
2018-08-30T02:04:46.728Z,17.10
2018-08-30T02:07:16.702Z,16.97
2018-08-30T02:09:48.031Z,17.09
2018-08-30T02:12:18.893Z,16.97
2018-08-30T02:14:49.936Z,16.95
2018-08-30T02:17:19.443Z,17.03
2018-08-30T02:19:48.636Z,17.02
2018-08-30T02:22:18.142Z,17.03
2018-08-30T02:24:47.177Z,17.02
2018-08-30T02:27:16.488Z,17.02
2018-08-30T02:29:46.495Z,16.89
2018-08-30T02:32:15.646Z,16.96
2018-08-30T02:34:46.644Z,17.12
2018-08-30T02:37:16.547Z,16.89
2018-08-30T02:39:46.428Z,16.88
2018-08-30T02:42:15.598Z,16.92
2018-08-30T02:44:45.844Z,17.00
2018-08-30T02:47:14.485Z,17.07
2018-08-30T02:49:43.095Z,17.06
2018-08-30T02:52:13.336Z,16.86
2018-08-30T02:54:43.279Z,16.91
2018-08-30T02:57:13.296Z,16.92
2018-08-30T02:59:42.396Z,16.87
2018-08-30T03:02:11.583Z,16.81
2018-08-30T03:04:42.356Z,16.82
2018-08-30T03:07:11.980Z,16.68
2018-08-30T03:09:41.392Z,16.59
2018-08-30T03:12:09.733Z,16.48
2018-08-30T03:14:40.928Z,16.58
2018-08-30T03:17:10.097Z,16.64
2018-08-30T03:19:38.755Z,16.55
2018-08-30T03:22:07.537Z,16.61
2018-08-30T03:24:37.297Z,16.66
2018-08-30T03:27:07.304Z,16.58
2018-08-30T03:29:35.701Z,16.61
2018-08-30T03:32:04.837Z,16.45
2018-08-30T03:34:33.175Z,16.37
2018-08-30T03:37:02.804Z,16.39
2018-08-30T03:39:33.359Z,16.38
2018-08-30T03:42:02.756Z,16.36
2018-08-30T03:44:31.468Z,16.22
2018-08-30T03:47:00.314Z,16.24
2018-08-30T03:49:29.572Z,16.39
2018-08-30T03:51:58.385Z,16.28
2018-08-30T03:54:30.169Z,16.26
2018-08-30T03:56:59.189Z,16.23
2018-08-30T03:59:29.617Z,16.18
2018-08-30T04:02:00.680Z,16.13
2018-08-30T04:04:29.797Z,16.11
2018-08-30T04:06:58.934Z,16.15
2018-08-30T04:09:27.979Z,16.14
2018-08-30T04:11:56.948Z,16.02
2018-08-30T04:14:25.587Z,16.04
2018-08-30T04:16:54.039Z,15.94
2018-08-30T04:19:23.340Z,15.82
2018-08-30T04:21:52.194Z,15.82
2018-08-30T04:24:21.391Z,15.68
2018-08-30T04:26:51.479Z,15.91
2018-08-30T04:29:24.229Z,15.78
2018-08-30T04:31:56.880Z,15.74
2018-08-30T04:34:27.212Z,15.81
2018-08-30T04:36:57.060Z,15.83
2018-08-30T04:39:26.132Z,15.73
2018-08-30T04:41:54.588Z,15.67
2018-08-30T04:44:24.275Z,15.74
2018-08-30T04:46:54.131Z,15.64
2018-08-30T04:49:23.015Z,15.73
2018-08-30T04:51:52.056Z,15.87
2018-08-30T04:54:20.984Z,15.95
2018-08-30T04:56:50.388Z,16.04
2018-08-30T04:59:18.751Z,15.99
2018-08-30T05:01:47.607Z,16.02
2018-08-30T05:04:16.206Z,15.92
2018-08-30T05:06:45.155Z,15.84
2018-08-30T05:09:13.992Z,15.98
2018-08-30T05:11:42.352Z,16.02
2018-08-30T05:14:11.284Z,16.16
2018-08-30T05:16:39.688Z,16.10
2018-08-30T05:19:08.112Z,16.02
2018-08-30T05:21:36.526Z,15.86
2018-08-30T05:24:04.895Z,16.14
2018-08-30T05:26:33.270Z,16.26
2018-08-30T05:29:02.540Z,15.96
2018-08-30T05:31:31.572Z,16.00
2018-08-30T05:34:01.219Z,16.24
2018-08-30T05:36:30.453Z,16.19
2018-08-30T05:38:58.836Z,16.13
2018-08-30T05:41:28.036Z,16.48
2018-08-30T05:43:57.911Z,16.82
2018-08-30T05:46:27.266Z,16.40
2018-08-30T05:48:56.183Z,16.58
2018-08-30T05:51:25.158Z,16.95
2018-08-30T05:53:54.081Z,16.95
2018-08-30T05:56:23.272Z,16.73
2018-08-30T05:58:52.101Z,16.54
2018-08-30T06:01:20.748Z,16.76
2018-08-30T06:03:50.829Z,16.77
2018-08-30T06:06:19.871Z,16.63
2018-08-30T06:08:50.421Z,16.76
2018-08-30T06:11:19.986Z,16.72
2018-08-30T06:13:49.652Z,16.93
2018-08-30T06:16:19.515Z,17.28
2018-08-30T06:18:48.595Z,17.22
2018-08-30T06:21:16.964Z,17.50
2018-08-30T06:23:46.446Z,17.26
2018-08-30T06:26:16.523Z,17.34
2018-08-30T06:28:46.268Z,17.14
2018-08-30T06:31:15.503Z,17.06
2018-08-30T06:33:44.559Z,17.38
2018-08-30T06:36:13.368Z,17.24
2018-08-30T06:38:42.005Z,17.27
2018-08-30T06:41:10.428Z,17.25
2018-08-30T06:43:38.818Z,16.91
2018-08-30T06:46:07.486Z,17.70
2018-08-30T06:48:36.723Z,18.25
2018-08-30T06:51:06.938Z,18.52
2018-08-30T06:53:36.548Z,18.71
2018-08-30T06:56:05.801Z,18.64
2018-08-30T06:58:35.017Z,18.43
2018-08-30T07:01:03.584Z,18.61
2018-08-30T07:03:32.407Z,18.51
2018-08-30T07:06:01.392Z,18.68
2018-08-30T07:08:30.546Z,18.38
2018-08-30T07:11:00.738Z,18.16
2018-08-30T07:13:32.420Z,17.93
2018-08-30T07:16:00.846Z,18.24
2018-08-30T07:18:29.261Z,17.91
2018-08-30T07:20:58.501Z,18.08
2018-08-30T07:23:27.778Z,17.91
2018-08-30T07:25:56.919Z,17.53
2018-08-30T07:28:26.853Z,17.88
2018-08-30T07:30:55.646Z,17.90
2018-08-30T07:33:25.131Z,17.73
2018-08-30T07:35:55.598Z,17.98
2018-08-30T07:38:24.306Z,17.68
2018-08-30T07:40:54.111Z,18.12
2018-08-30T07:43:23.895Z,18.48
2018-08-30T07:45:53.228Z,18.81
2018-08-30T07:48:21.873Z,18.95
2018-08-30T07:50:50.598Z,18.74
2018-08-30T07:53:19.851Z,18.62
2018-08-30T07:55:50.656Z,18.21
2018-08-30T07:58:23.679Z,19.06
2018-08-30T08:00:53.992Z,19.16
2018-08-30T08:03:23.096Z,19.67
2018-08-30T08:05:52.388Z,19.39
2018-08-30T08:08:21.756Z,18.97
2018-08-30T08:10:50.376Z,19.22
2018-08-30T08:13:19.844Z,19.44
2018-08-30T08:15:48.300Z,19.36
2018-08-30T08:18:18.992Z,19.03
2018-08-30T08:20:48.759Z,18.79
2018-08-30T08:23:17.679Z,18.90
2018-08-30T08:25:49.234Z,18.76
2018-08-30T08:28:19.528Z,18.97
2018-08-30T08:30:53.008Z,19.22
2018-08-30T08:33:21.710Z,19.15
2018-08-30T08:35:50.858Z,19.38
2018-08-30T08:38:19.225Z,19.43
2018-08-30T08:40:48.445Z,19.49
2018-08-30T08:43:18.299Z,19.36
2018-08-30T08:45:47.804Z,19.64
2018-08-30T08:48:17.013Z,19.95
2018-08-30T08:50:45.608Z,19.73
2018-08-30T08:53:15.382Z,19.88
2018-08-30T08:55:44.150Z,19.73
2018-08-30T08:58:14.367Z,19.34
2018-08-30T09:00:44.331Z,19.56
2018-08-30T09:03:13.475Z,19.58
2018-08-30T09:05:45.014Z,19.54
2018-08-30T09:08:13.387Z,19.92
2018-08-30T09:10:43.579Z,20.76
2018-08-30T09:13:12.527Z,20.25
2018-08-30T09:15:41.460Z,20.76
2018-08-30T09:18:09.948Z,20.57
2018-08-30T09:20:38.864Z,19.84
2018-08-30T09:23:07.813Z,19.57
2018-08-30T09:25:36.384Z,19.73
2018-08-30T09:28:07.432Z,18.93
2018-08-30T09:30:37.957Z,18.99
2018-08-30T09:33:07.324Z,19.16
2018-08-30T09:35:38.411Z,19.37
2018-08-30T09:38:07.747Z,19.84
2018-08-30T09:40:39.269Z,19.85
2018-08-30T09:43:07.806Z,19.59
2018-08-30T09:45:37.944Z,19.48
2018-08-30T09:48:07.079Z,18.91
2018-08-30T09:50:36.262Z,18.74
2018-08-30T09:53:05.535Z,18.84
2018-08-30T09:55:34.510Z,18.95
2018-08-30T09:58:05.782Z,19.17
2018-08-30T10:00:40.667Z,19.23
2018-08-30T10:03:11.871Z,19.53
2018-08-30T10:05:43.342Z,19.65
2018-08-30T10:08:17.444Z,19.57
2018-08-30T10:10:47.312Z,19.78
2018-08-30T10:13:18.770Z,19.67
2018-08-30T10:15:49.570Z,20.18
2018-08-30T10:18:20.565Z,20.19
2018-08-30T10:20:54.948Z,20.48
2018-08-30T10:23:23.361Z,20.23
2018-08-30T10:25:54.100Z,20.41
2018-08-30T10:28:29.376Z,21.03
2018-08-30T10:31:00.009Z,21.28
2018-08-30T10:33:29.948Z,21.03
2018-08-30T10:35:59.369Z,20.66
2018-08-30T10:38:31.940Z,20.48
2018-08-30T10:41:02.055Z,20.97
2018-08-30T10:43:31.061Z,21.63
2018-08-30T10:46:01.897Z,24.12
2018-08-30T10:48:32.833Z,24.19
2018-08-30T10:51:03.013Z,22.99
2018-08-30T10:53:33.098Z,22.36
2018-08-30T10:56:09.449Z,22.05
2018-08-30T10:58:40.319Z,22.00
2018-08-30T11:01:10.580Z,22.11
2018-08-30T11:03:41.960Z,22.80
2018-08-30T11:06:11.587Z,22.49
2018-08-30T11:08:43.186Z,22.55
2018-08-30T11:11:13.704Z,22.28
2018-08-30T11:13:42.067Z,22.54
2018-08-30T11:16:10.915Z,22.51
2018-08-30T11:18:41.329Z,22.20
2018-08-30T11:21:10.685Z,21.94
2018-08-30T11:23:39.819Z,20.89
2018-08-30T11:26:09.327Z,21.42
2018-08-30T11:28:40.156Z,20.42
2018-08-30T11:31:09.615Z,20.48
2018-08-30T11:33:38.704Z,20.31
2018-08-30T11:36:08.743Z,20.98
2018-08-30T11:38:38.467Z,20.40
2018-08-30T11:41:06.879Z,20.59
2018-08-30T11:43:38.371Z,20.28
2018-08-30T11:46:09.932Z,20.67
2018-08-30T11:48:38.308Z,21.24
2018-08-30T11:51:08.521Z,21.47
2018-08-30T11:53:38.267Z,21.74
2018-08-30T11:56:07.540Z,22.53
2018-08-30T11:58:37.246Z,22.54
2018-08-30T12:01:06.748Z,22.17
2018-08-30T12:03:35.707Z,22.28
2018-08-30T12:06:06.717Z,22.16
2018-08-30T12:08:35.680Z,22.00
2018-08-30T12:11:05.401Z,21.90
2018-08-30T12:13:34.154Z,21.40
2018-08-30T12:16:04.313Z,21.00
2018-08-30T12:18:34.080Z,22.12
2018-08-30T12:21:03.701Z,21.96
2018-08-30T12:23:33.189Z,22.04
2018-08-30T12:26:01.748Z,22.12
2018-08-30T12:28:31.286Z,21.74
2018-08-30T12:31:01.250Z,21.58
2018-08-30T12:33:30.832Z,21.59
2018-08-30T12:36:00.592Z,21.55
2018-08-30T12:38:28.857Z,21.93
2018-08-30T12:40:58.895Z,21.92
2018-08-30T12:43:30.087Z,21.45
2018-08-30T12:46:04.320Z,21.24
2018-08-30T12:48:33.836Z,21.20
2018-08-30T12:51:04.628Z,21.20
2018-08-30T12:53:36.117Z,21.32
2018-08-30T12:56:06.401Z,21.14
2018-08-30T12:58:36.415Z,21.12
2018-08-30T13:01:05.258Z,21.44
2018-08-30T13:03:35.549Z,21.40
2018-08-30T13:06:05.394Z,21.34
2018-08-30T13:08:34.713Z,20.92
2018-08-30T13:11:04.229Z,20.88
2018-08-30T13:13:33.754Z,20.72
2018-08-30T13:16:03.475Z,20.81
2018-08-30T13:18:32.653Z,20.44
2018-08-30T13:21:03.194Z,20.34
2018-08-30T13:23:31.517Z,20.13
2018-08-30T13:26:01.144Z,20.44
2018-08-30T13:28:31.511Z,20.50
2018-08-30T13:31:00.539Z,20.57
2018-08-30T13:33:29.118Z,20.56
2018-08-30T13:35:57.549Z,20.36
2018-08-30T13:38:26.711Z,20.46
2018-08-30T13:40:56.566Z,20.30
2018-08-30T13:43:26.073Z,20.27
2018-08-30T13:45:55.195Z,20.13
2018-08-30T13:48:23.568Z,20.45
2018-08-30T13:50:54.209Z,20.01
2018-08-30T13:53:23.707Z,20.23
2018-08-30T13:55:52.576Z,20.00
2018-08-30T13:58:21.079Z,20.12
2018-08-30T14:00:51.081Z,19.85
2018-08-30T14:03:18.931Z,19.92
2018-08-30T14:05:48.567Z,19.97
2018-08-30T14:08:18.133Z,19.76
2018-08-30T14:10:47.378Z,19.78
2018-08-30T14:13:19.408Z,19.77
2018-08-30T14:15:47.591Z,20.11
2018-08-30T14:18:17.679Z,20.10
2018-08-30T14:20:46.677Z,20.35
2018-08-30T14:23:16.873Z,19.94
2018-08-30T14:25:46.933Z,20.04
2018-08-30T14:28:17.192Z,20.40
2018-08-30T14:30:46.386Z,20.13
2018-08-30T14:33:14.891Z,20.24
2018-08-30T14:35:44.589Z,20.58
2018-08-30T14:38:13.176Z,20.43
2018-08-30T14:40:43.817Z,20.21
2018-08-30T14:43:15.137Z,20.59
2018-08-30T14:45:44.546Z,20.30
2018-08-30T14:48:14.748Z,20.38
2018-08-30T14:50:43.398Z,20.42
2018-08-30T14:53:13.843Z,20.18
2018-08-30T14:55:45.132Z,19.98
2018-08-30T14:58:15.291Z,19.67
2018-08-30T15:00:45.067Z,19.76
2018-08-30T15:03:14.819Z,19.61
2018-08-30T15:05:43.945Z,19.76
2018-08-30T15:08:12.380Z,19.66
2018-08-30T15:10:41.432Z,19.77
2018-08-30T15:13:12.679Z,20.04
2018-08-30T15:15:42.089Z,20.33
2018-08-30T15:18:13.579Z,20.44
2018-08-30T15:20:42.529Z,20.62
2018-08-30T15:23:11.248Z,20.19
2018-08-30T15:25:40.706Z,20.54
2018-08-30T15:28:10.090Z,20.59
2018-08-30T15:30:39.069Z,20.04
2018-08-30T15:33:08.264Z,20.31
2018-08-30T15:35:37.107Z,20.15
2018-08-30T15:38:06.311Z,20.53
2018-08-30T15:40:36.952Z,20.46
2018-08-30T15:43:17.126Z,20.41
2018-08-30T15:46:02.439Z,20.50
2018-08-30T15:48:31.921Z,20.72
2018-08-30T15:51:01.819Z,20.50
2018-08-30T15:53:31.754Z,20.52
2018-08-30T15:56:03.443Z,20.67
2018-08-30T15:58:34.559Z,20.26
2018-08-30T16:01:04.044Z,20.29
2018-08-30T16:03:38.102Z,20.98
2018-08-30T16:06:07.555Z,20.83
2018-08-30T16:08:39.075Z,20.57
2018-08-30T16:11:11.105Z,20.74
2018-08-30T16:13:40.649Z,20.60
2018-08-30T16:16:10.323Z,20.40
2018-08-30T16:18:40.613Z,20.44
2018-08-30T16:21:13.556Z,20.84
2018-08-30T16:23:43.900Z,21.22
2018-08-30T16:26:13.181Z,20.57
2018-08-30T16:28:41.635Z,20.69
2018-08-30T16:31:10.523Z,21.13
2018-08-30T16:33:39.377Z,21.05
2018-08-30T16:36:09.077Z,21.21
2018-08-30T16:38:37.597Z,21.50
2018-08-30T16:41:07.263Z,21.81
2018-08-30T16:43:36.612Z,21.35
2018-08-30T16:46:06.872Z,20.60
2018-08-30T16:48:36.022Z,20.66
2018-08-30T16:51:05.148Z,20.59
2018-08-30T16:53:35.629Z,20.77
2018-08-30T16:56:04.083Z,20.57
2018-08-30T16:58:32.493Z,20.06
2018-08-30T17:01:01.879Z,19.81
2018-08-30T17:03:31.354Z,20.23
2018-08-30T17:06:00.709Z,20.27
2018-08-30T17:08:31.405Z,20.09
2018-08-30T17:11:00.847Z,20.09
2018-08-30T17:13:30.284Z,20.22
2018-08-30T17:16:02.983Z,19.93
2018-08-30T17:18:31.805Z,20.05
2018-08-30T17:21:00.445Z,20.18
2018-08-30T17:23:28.864Z,20.37
2018-08-30T17:26:00.781Z,20.42
2018-08-30T17:28:30.631Z,20.45
2018-08-30T17:31:00.520Z,20.44
2018-08-30T17:33:30.104Z,20.46
2018-08-30T17:35:59.597Z,20.43
2018-08-30T17:38:28.916Z,20.31
2018-08-30T17:40:59.445Z,19.64
2018-08-30T17:43:28.483Z,19.48
2018-08-30T17:45:58.039Z,19.85
2018-08-30T17:48:27.910Z,19.99
2018-08-30T17:50:57.343Z,19.98
2018-08-30T17:53:27.603Z,19.71
2018-08-30T17:55:56.188Z,19.61
2018-08-30T17:58:25.016Z,19.31
2018-08-30T18:00:54.739Z,19.36
2018-08-30T18:03:24.220Z,19.22
2018-08-30T18:06:00.264Z,18.77
2018-08-30T18:08:28.728Z,18.80
2018-08-30T18:10:57.160Z,18.49
2018-08-30T18:13:26.993Z,18.32
2018-08-30T18:15:56.208Z,18.24
2018-08-30T18:18:25.874Z,18.16
2018-08-30T18:20:55.191Z,18.03
2018-08-30T18:23:25.758Z,17.92
2018-08-30T18:25:56.867Z,17.81
2018-08-30T18:28:25.292Z,17.69
2018-08-30T18:30:58.854Z,17.64
2018-08-30T18:33:29.036Z,17.61
2018-08-30T18:35:58.978Z,17.46
2018-08-30T18:38:28.995Z,17.31
2018-08-30T18:40:57.981Z,17.15
2018-08-30T18:43:27.089Z,17.05
2018-08-30T18:45:57.259Z,17.03
2018-08-30T18:48:26.631Z,16.90
2018-08-30T18:50:57.853Z,16.88
2018-08-30T18:53:28.418Z,16.91
2018-08-30T18:55:57.425Z,16.89
2018-08-30T18:58:25.880Z,16.68
2018-08-30T19:00:54.982Z,16.64
2018-08-30T19:03:25.787Z,16.61
2018-08-30T19:05:54.207Z,16.47
2018-08-30T19:08:24.535Z,16.27
2018-08-30T19:10:53.792Z,16.46
2018-08-30T19:13:24.179Z,16.42
2018-08-30T19:16:01.651Z,16.42
2018-08-30T19:18:35.276Z,16.42
2018-08-30T19:21:04.128Z,16.40
2018-08-30T19:23:34.200Z,16.31
2018-08-30T19:26:03.537Z,16.11
2018-08-30T19:28:31.918Z,16.12
2018-08-30T19:31:02.542Z,15.96
2018-08-30T19:33:32.532Z,15.86
2018-08-30T19:36:07.200Z,15.93
2018-08-30T19:38:35.659Z,15.88
2018-08-30T19:41:11.262Z,16.02
2018-08-30T19:43:40.305Z,16.05
2018-08-30T19:46:14.052Z,16.02
2018-08-30T19:48:44.573Z,16.23
2018-08-30T19:51:14.820Z,16.41
2018-08-30T19:53:44.042Z,16.22
2018-08-30T19:56:14.927Z,16.11
2018-08-30T19:58:45.962Z,16.08
2018-08-30T20:01:15.772Z,16.17
2018-08-30T20:03:45.132Z,16.29
2018-08-30T20:06:15.840Z,16.29
2018-08-30T20:08:48.586Z,16.45
2018-08-30T20:11:19.143Z,15.85
2018-08-30T20:13:49.289Z,16.31
2018-08-30T20:16:19.167Z,16.24
2018-08-30T20:18:49.686Z,16.14
2018-08-30T20:21:20.201Z,15.97
2018-08-30T20:23:50.315Z,15.96
2018-08-30T20:26:19.127Z,15.93
2018-08-30T20:28:48.313Z,15.97
2018-08-30T20:31:17.864Z,16.03
2018-08-30T20:33:47.603Z,15.89
2018-08-30T20:36:17.784Z,15.94
2018-08-30T20:38:47.232Z,15.85
2018-08-30T20:41:16.832Z,15.97
2018-08-30T20:43:46.957Z,15.78
2018-08-30T20:46:15.723Z,15.74
2018-08-30T20:48:49.619Z,15.77
2018-08-30T20:51:18.758Z,15.75
2018-08-30T20:53:47.673Z,15.62
2018-08-30T20:56:16.724Z,15.64
2018-08-30T20:58:46.015Z,15.78
2018-08-30T21:01:15.519Z,15.74
2018-08-30T21:03:44.597Z,15.70
2018-08-30T21:06:13.896Z,15.83
2018-08-30T21:08:42.827Z,16.06
2018-08-30T21:11:12.421Z,16.18
2018-08-30T21:13:40.871Z,16.05
2018-08-30T21:16:11.242Z,16.02
2018-08-30T21:18:40.564Z,15.71
2018-08-30T21:21:10.452Z,15.59
2018-08-30T21:23:39.504Z,15.73
2018-08-30T21:26:09.605Z,15.54
2018-08-30T21:28:40.783Z,15.65
2018-08-30T21:31:12.018Z,15.61
2018-08-30T21:33:44.584Z,15.19
2018-08-30T21:36:20.740Z,15.55
2018-08-30T21:38:53.366Z,15.40
2018-08-30T21:41:25.309Z,15.58
2018-08-30T21:43:58.273Z,15.36
2018-08-30T21:46:33.432Z,15.29
2018-08-30T21:49:04.426Z,15.35
2018-08-30T21:51:34.163Z,15.50
2018-08-30T21:54:07.628Z,15.30
2018-08-30T21:56:38.504Z,15.21
2018-08-30T21:59:08.666Z,15.36
2018-08-30T22:01:41.827Z,15.48
2018-08-30T22:04:13.711Z,15.34
2018-08-30T22:06:43.085Z,15.42
2018-08-30T22:09:13.405Z,14.47
2018-08-30T22:11:44.769Z,15.21
2018-08-30T22:14:16.424Z,15.08
2018-08-30T22:16:45.436Z,15.05
2018-08-30T22:19:15.180Z,15.20
2018-08-30T22:21:43.889Z,15.12
2018-08-30T22:24:12.865Z,15.02
2018-08-30T22:26:42.689Z,15.00
2018-08-30T22:29:12.184Z,15.09
2018-08-30T22:31:41.101Z,15.12
2018-08-30T22:34:11.208Z,15.07
2018-08-30T22:36:41.416Z,14.98
2018-08-30T22:41:43.859Z,14.56
2018-08-30T22:44:13.450Z,14.64
2018-08-30T22:46:44.315Z,14.41
2018-08-30T22:49:13.360Z,14.54
2018-08-30T22:51:42.497Z,14.60
2018-08-30T22:54:11.311Z,14.72
2018-08-30T22:56:40.073Z,14.81
2018-08-30T22:59:10.151Z,14.68
2018-08-30T23:01:39.036Z,14.72
2018-08-30T23:04:07.666Z,14.68
2018-08-30T23:06:36.502Z,14.66
2018-08-30T23:09:06.682Z,14.51
2018-08-30T23:11:35.861Z,14.29
2018-08-30T23:14:05.062Z,14.44
2018-08-30T23:16:37.696Z,14.53
2018-08-30T23:19:06.091Z,14.59
2018-08-30T23:21:34.928Z,14.55
2018-08-30T23:24:04.192Z,14.62
2018-08-30T23:26:33.044Z,14.64
2018-08-30T23:29:02.118Z,14.67
2018-08-30T23:31:31.790Z,14.63
2018-08-30T23:34:01.278Z,14.46
2018-08-30T23:36:30.869Z,14.15
2018-08-30T23:39:01.201Z,14.10
2018-08-30T23:41:30.186Z,14.08
2018-08-30T23:43:59.480Z,14.16
2018-08-30T23:46:30.330Z,13.94
2018-08-30T23:49:01.952Z,13.81
2018-08-30T23:51:30.369Z,14.09
2018-08-30T23:53:59.832Z,14.11
2018-08-30T23:56:29.271Z,14.16
2018-08-30T23:59:08.810Z,14.11
